createdAt,value
2022-12-01T00:01:02.351Z,33.90
2022-12-01T00:03:32.522Z,33.00
2022-12-01T00:06:04.766Z,33.17
2022-12-01T00:08:31.561Z,32.43
2022-12-01T00:11:08.993Z,35.13
2022-12-01T00:13:35.573Z,32.50
2022-12-01T00:16:17.177Z,36.20
2022-12-01T00:18:44.032Z,36.17
2022-12-01T00:21:14.918Z,34.50
2022-12-01T00:23:47.203Z,35.87
2022-12-01T00:26:14.610Z,34.77
2022-12-01T00:28:41.025Z,32.20
2022-12-01T00:31:11.904Z,34.83
2022-12-01T00:33:38.961Z,34.03
2022-12-01T00:36:06.795Z,35.27
2022-12-01T00:38:33.660Z,33.97
2022-12-01T00:41:00.104Z,31.17
2022-12-01T00:43:26.582Z,30.73
2022-12-01T00:45:53.130Z,30.97
2022-12-01T00:48:19.560Z,32.97
2022-12-01T00:50:46.030Z,32.00
2022-12-01T00:53:12.463Z,31.93
2022-12-01T00:55:40.178Z,30.80
2022-12-01T00:58:07.764Z,29.53
2022-12-01T01:00:34.397Z,31.67
2022-12-01T01:03:00.794Z,30.33
2022-12-01T01:05:27.187Z,30.93
2022-12-01T01:07:53.624Z,29.93
2022-12-01T01:10:20.064Z,30.43
2022-12-01T01:12:46.540Z,29.63
2022-12-01T01:15:12.942Z,32.03
2022-12-01T01:17:39.364Z,30.27
2022-12-01T01:20:06.870Z,30.87
2022-12-01T01:22:34.933Z,33.10
2022-12-01T01:25:01.377Z,33.67
2022-12-01T01:27:27.917Z,30.97
2022-12-01T01:29:54.322Z,34.53
2022-12-01T01:32:20.874Z,36.73
2022-12-01T01:34:47.255Z,37.37
2022-12-01T01:37:13.699Z,35.10
2022-12-01T01:39:40.117Z,38.27
2022-12-01T01:42:06.577Z,38.03
2022-12-01T01:44:55.124Z,40.27
2022-12-01T01:47:41.860Z,37.97
2022-12-01T01:50:10.342Z,39.33
2022-12-01T01:52:38.957Z,39.73
2022-12-01T01:55:05.989Z,42.37
2022-12-01T01:57:33.349Z,38.43
2022-12-01T02:00:07.819Z,44.37
2022-12-01T02:02:43.498Z,42.97
2022-12-01T02:05:13.612Z,43.57
2022-12-01T02:07:41.189Z,44.27
2022-12-01T02:10:10.109Z,48.10
2022-12-01T02:13:05.931Z,46.43
2022-12-01T02:15:46.656Z,44.43
2022-12-01T02:18:34.967Z,47.17
2022-12-01T02:21:17.257Z,43.07
2022-12-01T02:23:43.572Z,45.80
2022-12-01T02:26:22.568Z,45.63
2022-12-01T02:29:04.321Z,45.47
2022-12-01T02:31:51.545Z,44.40
2022-12-01T02:34:24.207Z,44.13
2022-12-01T02:36:55.035Z,44.37
2022-12-01T02:39:34.437Z,43.37
2022-12-01T02:42:08.487Z,44.50
2022-12-01T02:44:42.377Z,42.27
2022-12-01T02:47:12.251Z,43.20
2022-12-01T02:49:50.372Z,42.23
2022-12-01T02:52:17.798Z,42.67
2022-12-01T02:54:45.568Z,42.73
2022-12-01T02:57:13.497Z,41.10
2022-12-01T02:59:45.305Z,42.60
2022-12-01T03:02:31.929Z,41.53
2022-12-01T03:05:06.801Z,41.43
2022-12-01T03:07:57.315Z,40.27
2022-12-01T03:10:45.443Z,40.37
2022-12-01T03:13:20.605Z,42.47
2022-12-01T03:16:12.591Z,43.67
2022-12-01T03:18:55.516Z,41.73
2022-12-01T03:21:33.844Z,41.70
2022-12-01T03:24:08.195Z,41.47
2022-12-01T03:26:37.091Z,43.70
2022-12-01T03:29:08.587Z,43.17
2022-12-01T03:31:40.617Z,43.63
2022-12-01T03:34:13.440Z,44.60
2022-12-01T03:36:44.238Z,46.63
2022-12-01T03:39:23.236Z,45.07
2022-12-01T03:42:00.981Z,44.43
2022-12-01T03:44:33.055Z,43.77
2022-12-01T03:47:04.479Z,44.00
2022-12-01T03:49:31.044Z,45.60
2022-12-01T03:52:16.058Z,46.93
2022-12-01T03:54:54.651Z,45.17
2022-12-01T03:57:26.578Z,47.70
2022-12-01T03:59:53.435Z,45.30
2022-12-01T04:02:20.148Z,45.90
2022-12-01T04:04:46.782Z,47.03
2022-12-01T04:07:14.328Z,45.90
2022-12-01T04:09:41.764Z,46.23
2022-12-01T04:12:29.369Z,47.47
2022-12-01T04:15:15.389Z,47.43
2022-12-01T04:17:45.817Z,46.97
2022-12-01T04:20:14.197Z,43.57
2022-12-01T04:22:40.992Z,46.00
2022-12-01T04:25:08.295Z,45.90
2022-12-01T04:27:35.009Z,46.97
2022-12-01T04:30:01.954Z,44.90
2022-12-01T04:32:28.403Z,45.93
2022-12-01T04:34:54.822Z,46.40
2022-12-01T04:37:21.244Z,49.73
2022-12-01T04:39:48.096Z,47.67
2022-12-01T04:42:14.669Z,48.67
2022-12-01T04:44:41.081Z,47.27
2022-12-01T04:47:07.720Z,46.60
2022-12-01T04:49:35.199Z,48.50
2022-12-01T04:52:01.628Z,47.57
2022-12-01T04:54:28.193Z,49.37
2022-12-01T04:56:54.669Z,48.83
2022-12-01T04:59:21.101Z,48.00
2022-12-01T05:01:48.156Z,46.87
2022-12-01T05:04:15.461Z,48.10
2022-12-01T05:06:42.798Z,47.57
2022-12-01T05:09:16.888Z,46.87
2022-12-01T05:11:44.200Z,47.03
2022-12-01T05:14:10.610Z,46.93
2022-12-01T05:16:37.067Z,46.97
2022-12-01T05:19:24.148Z,46.60
2022-12-01T05:21:51.426Z,45.87
2022-12-01T05:24:18.481Z,47.00
2022-12-01T05:26:45.217Z,47.37
2022-12-01T05:29:12.431Z,48.00
2022-12-01T05:31:39.786Z,46.63
2022-12-01T05:34:07.002Z,45.03
2022-12-01T05:36:33.547Z,46.47
2022-12-01T05:38:59.991Z,46.63
2022-12-01T05:41:26.471Z,47.63
2022-12-01T05:43:52.995Z,47.80
2022-12-01T05:46:19.484Z,45.57
2022-12-01T05:48:46.551Z,47.23
2022-12-01T05:51:15.658Z,47.47
2022-12-01T05:53:42.431Z,47.27
2022-12-01T05:56:08.916Z,45.87
2022-12-01T05:58:35.862Z,48.47
2022-12-01T06:01:03.075Z,49.40
2022-12-01T06:03:29.446Z,46.67
2022-12-01T06:05:56.036Z,48.17
2022-12-01T06:08:22.415Z,45.53
2022-12-01T06:10:48.810Z,46.73
2022-12-01T06:13:15.257Z,47.00
2022-12-01T06:15:41.710Z,46.70
2022-12-01T06:18:08.141Z,45.03
2022-12-01T06:20:34.542Z,46.33
2022-12-01T06:23:01.084Z,46.13
2022-12-01T06:25:27.511Z,45.03
2022-12-01T06:27:58.096Z,45.47
2022-12-01T06:30:25.316Z,45.77
2022-12-01T06:32:51.822Z,42.63
2022-12-01T06:35:18.403Z,43.23
2022-12-01T06:37:44.836Z,44.17
2022-12-01T06:40:11.876Z,45.57
2022-12-01T06:42:38.452Z,45.90
2022-12-01T06:45:05.403Z,46.37
2022-12-01T06:47:32.049Z,45.53
2022-12-01T06:49:58.625Z,45.37
2022-12-01T06:52:25.050Z,47.43
2022-12-01T06:54:51.542Z,47.30
2022-12-01T06:57:18.179Z,48.53
2022-12-01T06:59:45.251Z,45.53
2022-12-01T07:02:12.047Z,45.80
2022-12-01T07:04:38.631Z,42.73
2022-12-01T07:07:05.820Z,43.33
2022-12-01T07:09:32.447Z,45.50
2022-12-01T07:11:58.969Z,43.03
2022-12-01T07:14:30.813Z,41.87
2022-12-01T07:16:58.098Z,44.57
2022-12-01T07:19:24.691Z,44.60
2022-12-01T07:21:51.152Z,43.90
2022-12-01T07:24:17.651Z,43.13
2022-12-01T07:26:44.380Z,42.40
2022-12-01T07:29:11.128Z,43.37
2022-12-01T07:31:38.511Z,41.57
2022-12-01T07:34:05.858Z,42.53
2022-12-01T07:36:32.455Z,44.00
2022-12-01T07:38:58.864Z,43.00
2022-12-01T07:41:25.401Z,44.10
2022-12-01T07:43:52.106Z,43.20
2022-12-01T07:46:23.681Z,43.90
2022-12-01T07:48:51.535Z,42.87
2022-12-01T07:51:18.234Z,44.57
2022-12-01T07:53:45.969Z,42.53
2022-12-01T07:56:12.778Z,44.27
2022-12-01T07:58:39.603Z,44.30
2022-12-01T08:01:15.011Z,42.73
2022-12-01T08:03:42.345Z,41.10
2022-12-01T08:06:09.469Z,41.47
2022-12-01T08:08:37.276Z,43.70
2022-12-01T08:11:12.953Z,43.43
2022-12-01T08:13:40.089Z,42.93
2022-12-01T08:16:08.234Z,39.90
2022-12-01T08:18:35.797Z,42.93
2022-12-01T08:21:02.375Z,41.37
2022-12-01T08:23:28.825Z,41.90
2022-12-01T08:25:55.650Z,43.07
2022-12-01T08:28:22.438Z,42.37
2022-12-01T08:30:48.896Z,41.60
2022-12-01T08:33:15.328Z,42.43
2022-12-01T08:35:41.772Z,41.53
2022-12-01T08:38:09.067Z,42.03
2022-12-01T08:40:35.497Z,39.70
2022-12-01T08:43:02.085Z,37.17
2022-12-01T08:45:28.571Z,37.40
2022-12-01T08:47:58.863Z,35.73
2022-12-01T08:50:26.670Z,36.40
2022-12-01T08:52:53.582Z,35.23
2022-12-01T08:55:20.902Z,36.03
2022-12-01T08:57:47.573Z,36.60
2022-12-01T09:00:14.800Z,35.43
2022-12-01T09:02:41.233Z,35.13
2022-12-01T09:05:08.117Z,36.00
2022-12-01T09:07:34.612Z,37.17
2022-12-01T09:10:01.046Z,35.60
2022-12-01T09:12:29.003Z,35.43
2022-12-01T09:14:55.419Z,36.00
2022-12-01T09:17:21.806Z,34.43
2022-12-01T09:19:48.617Z,34.90
2022-12-01T09:22:15.472Z,37.40
2022-12-01T09:24:41.925Z,35.07
2022-12-01T09:27:09.857Z,35.33
2022-12-01T09:29:36.438Z,34.77
2022-12-01T09:32:03.090Z,34.43
2022-12-01T09:34:29.633Z,33.37
2022-12-01T09:36:57.732Z,31.90
2022-12-01T09:39:24.908Z,32.30
2022-12-01T09:41:59.206Z,33.43
2022-12-01T09:44:30.419Z,32.47
2022-12-01T09:47:11.898Z,33.80
2022-12-01T09:49:46.832Z,32.77
2022-12-01T09:52:16.192Z,33.40
2022-12-01T09:54:42.797Z,32.70
2022-12-01T09:57:22.294Z,34.53
2022-12-01T09:59:49.121Z,34.70
2022-12-01T10:02:38.690Z,34.10
2022-12-01T10:05:13.686Z,34.17
2022-12-01T10:07:45.230Z,34.13
2022-12-01T10:10:15.469Z,35.13
2022-12-01T10:12:50.264Z,33.63
2022-12-01T10:15:49.115Z,33.57
2022-12-01T10:18:51.633Z,32.73
2022-12-01T10:21:52.443Z,30.83
2022-12-01T10:24:28.380Z,32.40
2022-12-01T10:27:26.603Z,32.53
2022-12-01T10:30:08.074Z,31.90
2022-12-01T10:32:46.619Z,32.40
2022-12-01T10:35:17.522Z,33.93
2022-12-01T10:37:45.487Z,32.20
2022-12-01T10:40:16.487Z,33.20
2022-12-01T10:42:45.319Z,33.50
2022-12-01T10:45:28.572Z,34.00
2022-12-01T10:48:21.986Z,32.50
2022-12-01T10:50:52.419Z,32.97
2022-12-01T10:53:33.626Z,33.87
2022-12-01T10:56:10.380Z,31.83
2022-12-01T10:58:48.654Z,31.00
2022-12-01T11:01:20.856Z,32.60
2022-12-01T11:03:53.175Z,31.33
2022-12-01T11:06:25.438Z,32.53
2022-12-01T11:09:01.269Z,30.93
2022-12-01T11:11:38.040Z,31.17
2022-12-01T11:14:16.895Z,30.73
2022-12-01T11:16:48.509Z,31.40
2022-12-01T11:19:31.375Z,31.20
2022-12-01T11:22:03.366Z,32.43
2022-12-01T11:24:47.008Z,31.63
2022-12-01T11:27:24.900Z,32.87
2022-12-01T11:30:04.697Z,31.27
2022-12-01T11:32:34.425Z,30.23
2022-12-01T11:35:05.017Z,30.57
2022-12-01T11:37:36.730Z,29.93
2022-12-01T11:40:28.845Z,31.77
2022-12-01T11:42:57.903Z,29.40
2022-12-01T11:45:32.302Z,28.70
2022-12-01T11:48:16.685Z,29.60
2022-12-01T11:50:45.084Z,30.70
2022-12-01T11:53:28.670Z,30.63
2022-12-01T11:56:15.121Z,29.17
2022-12-01T11:58:42.388Z,28.43
2022-12-01T12:01:23.443Z,29.73
2022-12-01T12:03:59.326Z,28.33
2022-12-01T12:06:58.670Z,27.97
2022-12-01T12:09:44.783Z,28.47
2022-12-01T12:12:22.087Z,24.87
2022-12-01T12:15:02.489Z,27.63
2022-12-01T12:18:09.716Z,28.33
2022-12-01T12:20:43.088Z,26.80
2022-12-01T12:23:35.842Z,28.47
2022-12-01T12:26:08.536Z,26.57
2022-12-01T12:29:00.099Z,28.13
2022-12-01T12:31:38.506Z,28.53
2022-12-01T12:34:11.284Z,28.80
2022-12-01T12:36:47.227Z,29.73
2022-12-01T12:39:32.314Z,28.30
2022-12-01T12:41:59.163Z,29.07
2022-12-01T12:44:43.732Z,28.53
2022-12-01T12:47:38.609Z,28.47
2022-12-01T12:50:23.221Z,28.93
2022-12-01T12:52:52.054Z,30.33
2022-12-01T12:55:27.472Z,28.80
2022-12-01T12:57:58.304Z,29.67
2022-12-01T13:00:27.087Z,30.10
2022-12-01T13:03:05.933Z,29.90
2022-12-01T13:05:57.767Z,27.80
2022-12-01T13:08:39.155Z,29.20
2022-12-01T13:11:29.581Z,28.77
2022-12-01T13:14:06.536Z,28.23
2022-12-01T13:16:53.562Z,29.47
2022-12-01T13:19:27.423Z,29.27
2022-12-01T13:21:54.357Z,29.13
2022-12-01T13:24:24.042Z,30.37
2022-12-01T13:27:20.534Z,27.87
2022-12-01T13:29:49.757Z,27.33
2022-12-01T13:32:33.095Z,28.67
2022-12-01T13:35:00.892Z,28.17
2022-12-01T13:37:30.002Z,27.90
2022-12-01T13:40:07.263Z,27.30
2022-12-01T13:42:35.261Z,29.43
2022-12-01T13:45:08.395Z,30.13
2022-12-01T13:47:47.004Z,28.53
2022-12-01T13:51:13.445Z,29.90
2022-12-01T13:53:53.233Z,28.70
2022-12-01T13:56:39.336Z,29.50
2022-12-01T13:59:46.016Z,29.40
2022-12-01T14:02:21.272Z,29.57
2022-12-01T14:04:48.203Z,29.27
2022-12-01T14:07:37.000Z,29.00
2022-12-01T14:10:10.056Z,29.07
2022-12-01T14:12:37.989Z,27.80
2022-12-01T14:15:22.356Z,28.37
2022-12-01T14:17:59.410Z,29.70
2022-12-01T14:20:27.496Z,29.93
2022-12-01T14:23:21.390Z,30.67
2022-12-01T14:25:59.897Z,31.70
2022-12-01T14:28:55.266Z,30.77
2022-12-01T14:31:23.270Z,30.17
2022-12-01T14:34:01.848Z,30.73
2022-12-01T14:36:51.781Z,30.57
2022-12-01T14:39:24.989Z,28.07
2022-12-01T14:42:03.594Z,29.20
2022-12-01T14:44:33.144Z,28.80
2022-12-01T14:47:23.712Z,29.73
2022-12-01T14:50:00.646Z,29.40
2022-12-01T14:52:32.191Z,28.70
2022-12-01T14:55:00.217Z,31.00
2022-12-01T14:57:38.078Z,28.73
2022-12-01T15:00:10.946Z,28.17
2022-12-01T15:02:41.787Z,28.80
2022-12-01T15:05:14.134Z,28.93
2022-12-01T15:07:42.786Z,29.03
2022-12-01T15:10:29.813Z,28.40
2022-12-01T15:12:56.268Z,28.40
2022-12-01T15:15:24.929Z,27.67
2022-12-01T15:17:55.824Z,29.30
2022-12-01T15:20:37.107Z,29.17
2022-12-01T15:23:15.063Z,30.23
2022-12-01T15:25:44.158Z,27.80
2022-12-01T15:28:11.120Z,27.87
2022-12-01T15:30:38.307Z,28.57
2022-12-01T15:33:06.658Z,29.47
2022-12-01T15:35:33.482Z,29.27
2022-12-01T15:38:01.172Z,29.80
2022-12-01T15:41:13.349Z,30.43
2022-12-01T15:43:21.123Z,28.60
2022-12-01T15:46:00.223Z,30.40
2022-12-01T15:48:35.068Z,29.60
2022-12-01T15:51:25.765Z,29.53
2022-12-01T15:53:55.639Z,28.20
2022-12-01T15:56:31.048Z,29.10
2022-12-01T15:59:07.810Z,27.27
2022-12-01T16:01:34.565Z,27.70
2022-12-01T16:04:04.700Z,28.27
2022-12-01T16:06:34.757Z,30.93
2022-12-01T16:09:04.580Z,29.20
2022-12-01T16:11:31.307Z,31.63
2022-12-01T16:14:08.108Z,29.17
2022-12-01T16:16:44.304Z,31.97
2022-12-01T16:19:10.715Z,30.47
2022-12-01T16:21:51.508Z,29.57
2022-12-01T16:24:25.003Z,29.13
2022-12-01T16:26:59.391Z,27.13
2022-12-01T16:29:27.464Z,27.70
2022-12-01T16:34:47.693Z,26.17
2022-12-01T16:37:15.127Z,25.73
2022-12-01T16:39:41.828Z,23.20
2022-12-01T16:42:12.247Z,22.27
2022-12-01T16:44:38.673Z,22.30
2022-12-01T16:47:13.413Z,22.57
2022-12-01T16:49:40.363Z,21.93
2022-12-01T16:52:36.520Z,22.57
2022-12-01T16:54:53.223Z,21.10
2022-12-01T16:57:19.657Z,21.80
2022-12-01T16:59:46.086Z,20.67
2022-12-01T17:02:12.591Z,20.87
2022-12-01T17:04:39.066Z,21.67
2022-12-01T17:07:05.554Z,21.00
2022-12-01T17:09:32.231Z,21.27
2022-12-01T17:11:59.218Z,22.17
2022-12-01T17:14:25.663Z,20.87
2022-12-01T17:16:52.183Z,19.27
2022-12-01T17:19:19.191Z,19.40
2022-12-01T17:21:45.656Z,20.23
2022-12-01T17:24:16.149Z,19.20
2022-12-01T17:26:45.474Z,19.20
2022-12-01T17:29:12.124Z,18.07
2022-12-01T17:31:38.652Z,17.70
2022-12-01T17:34:05.261Z,17.57
2022-12-01T17:36:31.813Z,18.27
2022-12-01T17:38:58.892Z,17.63
2022-12-01T17:41:32.011Z,17.37
2022-12-01T17:43:58.901Z,17.83
2022-12-01T17:46:25.593Z,17.97
2022-12-01T17:48:52.155Z,18.20
2022-12-01T17:51:18.802Z,18.13
2022-12-01T17:53:45.450Z,19.03
2022-12-01T17:56:15.922Z,16.67
2022-12-01T17:58:43.174Z,18.57
2022-12-01T18:01:15.931Z,17.17
2022-12-01T18:03:42.761Z,17.83
2022-12-01T18:06:09.391Z,17.00
2022-12-01T18:08:37.368Z,16.97
2022-12-01T18:11:12.670Z,17.73
2022-12-01T18:13:44.485Z,17.57
2022-12-01T18:16:16.197Z,17.67
2022-12-01T18:18:43.125Z,18.93
2022-12-01T18:21:14.907Z,19.53
2022-12-01T18:23:41.621Z,17.23
2022-12-01T18:26:15.524Z,16.33
2022-12-01T18:28:42.825Z,17.73
2022-12-01T18:31:15.094Z,16.17
2022-12-01T18:33:43.346Z,15.73
2022-12-01T18:36:13.708Z,17.27
2022-12-01T18:38:40.982Z,14.87
2022-12-01T18:41:08.016Z,15.40
2022-12-01T18:43:34.722Z,14.30
2022-12-01T18:46:03.369Z,15.00
2022-12-01T18:48:30.000Z,15.40
2022-12-01T18:50:59.397Z,15.23
2022-12-01T18:53:27.282Z,16.07
2022-12-01T18:55:53.813Z,13.37
2022-12-01T18:58:20.234Z,13.77
2022-12-01T19:00:46.899Z,14.43
2022-12-01T19:03:13.629Z,14.43
2022-12-01T19:05:40.388Z,12.73
2022-12-01T19:08:07.131Z,13.47
2022-12-01T19:10:33.793Z,13.27
2022-12-01T19:13:00.281Z,12.87
2022-12-01T19:15:26.922Z,12.03
2022-12-01T19:17:54.585Z,11.50
2022-12-01T19:20:21.104Z,11.17
2022-12-01T19:22:47.602Z,11.87
2022-12-01T19:25:14.264Z,10.90
2022-12-01T19:27:41.182Z,11.73
2022-12-01T19:30:08.122Z,10.73
2022-12-01T19:32:34.629Z,11.43
2022-12-01T19:35:01.087Z,10.60
2022-12-01T19:37:27.583Z,11.37
2022-12-01T19:39:54.057Z,11.80
2022-12-01T19:42:20.462Z,12.13
2022-12-01T19:44:47.359Z,11.20
2022-12-01T19:47:17.840Z,10.83
2022-12-01T19:49:48.487Z,11.73
2022-12-01T19:52:14.941Z,11.03
2022-12-01T19:54:41.472Z,12.90
2022-12-01T19:57:07.913Z,11.90
2022-12-01T19:59:34.423Z,11.57
2022-12-01T20:02:00.993Z,11.87
2022-12-01T20:04:27.584Z,11.83
2022-12-01T20:06:54.219Z,14.10
2022-12-01T20:09:20.851Z,11.90
2022-12-01T20:11:47.241Z,13.27
2022-12-01T20:14:14.248Z,12.97
2022-12-01T20:16:40.837Z,14.57
2022-12-01T20:19:08.125Z,12.97
2022-12-01T20:21:39.202Z,12.27
2022-12-01T20:24:07.604Z,12.83
2022-12-01T20:26:36.894Z,13.03
2022-12-01T20:29:17.518Z,13.03
2022-12-01T20:31:44.508Z,13.13
2022-12-01T20:34:15.404Z,13.07
2022-12-01T20:36:42.434Z,12.87
2022-12-01T20:39:09.797Z,13.80
2022-12-01T20:41:36.883Z,14.10
2022-12-01T20:44:07.531Z,16.07
2022-12-01T20:46:35.004Z,14.03
2022-12-01T20:49:02.896Z,14.20
2022-12-01T20:51:33.068Z,14.10
2022-12-01T20:54:26.915Z,14.23
2022-12-01T20:56:48.691Z,14.47
2022-12-01T20:59:15.146Z,15.47
2022-12-01T21:01:41.652Z,17.07
2022-12-01T21:04:08.734Z,15.77
2022-12-01T21:06:35.291Z,15.30
2022-12-01T21:09:02.772Z,15.40
2022-12-01T21:12:06.925Z,17.13
2022-12-01T21:14:37.796Z,19.27
2022-12-01T21:17:14.596Z,18.53
2022-12-01T21:19:47.851Z,18.00
2022-12-01T21:22:14.257Z,18.57
2022-12-01T21:24:43.755Z,18.67
2022-12-01T21:27:15.313Z,18.67
2022-12-01T21:29:44.823Z,20.00
2022-12-01T21:32:15.830Z,20.97
2022-12-01T21:34:42.544Z,21.13
2022-12-01T21:37:23.133Z,21.50
2022-12-01T21:39:51.650Z,21.47
2022-12-01T21:42:22.834Z,21.73
2022-12-01T21:44:49.857Z,22.23
2022-12-01T21:47:26.270Z,21.57
2022-12-01T21:49:54.576Z,21.10
2022-12-01T21:52:40.629Z,20.63
2022-12-01T21:55:16.188Z,21.67
2022-12-01T21:57:50.929Z,21.47
2022-12-01T22:00:34.542Z,22.83
2022-12-01T22:03:04.089Z,22.20
2022-12-01T22:05:40.675Z,22.20
2022-12-01T22:08:13.296Z,22.07
2022-12-01T22:10:54.728Z,22.43
2022-12-01T22:13:35.925Z,21.73
2022-12-01T22:16:02.487Z,23.73
2022-12-01T22:18:39.586Z,21.53
2022-12-01T22:21:36.051Z,22.87
2022-12-01T22:24:18.632Z,24.40
2022-12-01T22:26:47.854Z,24.60
2022-12-01T22:29:30.935Z,23.80
2022-12-01T22:32:12.609Z,21.93
2022-12-01T22:34:44.165Z,24.10
2022-12-01T22:37:16.088Z,24.13
2022-12-01T22:39:42.485Z,22.17
2022-12-01T22:42:18.929Z,21.07
2022-12-01T22:44:45.563Z,22.03
2022-12-01T22:47:12.244Z,21.30
2022-12-01T22:49:38.669Z,21.47
2022-12-01T22:52:20.432Z,21.87
2022-12-01T22:54:51.101Z,21.00
2022-12-01T22:57:32.925Z,21.07
2022-12-01T23:00:15.488Z,20.50
2022-12-01T23:02:42.189Z,20.73
2022-12-01T23:05:26.461Z,20.93
2022-12-01T23:07:53.398Z,20.20
2022-12-01T23:10:30.841Z,21.93
2022-12-01T23:13:00.432Z,19.50
2022-12-01T23:15:40.564Z,20.70
2022-12-01T23:18:28.832Z,21.40
2022-12-01T23:20:57.415Z,21.37
2022-12-01T23:23:27.894Z,19.43
2022-12-01T23:25:54.454Z,23.00
2022-12-01T23:28:20.968Z,22.23
2022-12-01T23:30:49.794Z,21.83
2022-12-01T23:33:24.445Z,22.30
2022-12-01T23:36:23.723Z,21.03
2022-12-01T23:38:52.409Z,21.77
2022-12-01T23:41:25.651Z,23.43
2022-12-01T23:43:53.956Z,23.30
2022-12-01T23:46:23.340Z,22.23
2022-12-01T23:48:53.889Z,22.83
2022-12-01T23:51:28.861Z,22.10
2022-12-01T23:53:56.241Z,22.20
2022-12-01T23:56:25.484Z,21.60
2022-12-01T23:58:52.870Z,20.97
